createdAt,value
2018-11-21T00:02:13.239Z,79.20
2018-11-21T00:04:44.512Z,72.23
2018-11-21T00:07:15.814Z,76.67
2018-11-21T00:09:47.084Z,64.33
2018-11-21T00:12:18.407Z,65.30
2018-11-21T00:14:49.772Z,72.30
2018-11-21T00:17:21.094Z,45.20
2018-11-21T00:19:52.340Z,73.07
2018-11-21T00:22:23.580Z,85.93
2018-11-21T00:24:54.836Z,53.43
2018-11-21T00:27:26.062Z,63.40
2018-11-21T00:29:57.376Z,47.47
2018-11-21T00:32:28.895Z,56.37
2018-11-21T00:35:00.188Z,63.63
2018-11-21T00:37:31.408Z,68.97
2018-11-21T00:40:02.731Z,42.27
2018-11-21T00:42:33.936Z,65.67
2018-11-21T00:45:05.247Z,32.40
2018-11-21T00:47:36.475Z,39.87
2018-11-21T00:50:08.336Z,70.27
2018-11-21T00:52:39.668Z,56.83
2018-11-21T00:55:10.894Z,73.87
2018-11-21T00:57:42.193Z,59.07
2018-11-21T01:00:13.961Z,54.20
2018-11-21T01:02:45.254Z,67.07
2018-11-21T01:05:16.516Z,59.07
2018-11-21T01:07:47.751Z,65.10
2018-11-21T01:10:19.091Z,53.00
2018-11-21T01:12:50.278Z,49.43
2018-11-21T01:15:21.509Z,55.90
2018-11-21T01:17:52.739Z,59.20
2018-11-21T01:20:24.093Z,51.47
2018-11-21T01:22:55.358Z,57.00
2018-11-21T01:25:26.604Z,64.07
2018-11-21T01:27:57.927Z,56.37
2018-11-21T01:30:29.236Z,38.73
2018-11-21T01:33:00.572Z,58.63
2018-11-21T01:35:31.978Z,60.60
2018-11-21T01:38:03.300Z,52.67
2018-11-21T01:40:34.467Z,58.40
2018-11-21T01:43:05.876Z,58.70
2018-11-21T01:45:37.158Z,68.33
2018-11-21T01:48:08.467Z,46.40
2018-11-21T01:50:39.625Z,37.63
2018-11-21T01:53:10.938Z,49.57
2018-11-21T01:55:42.206Z,61.67
2018-11-21T01:58:13.576Z,46.77
2018-11-21T02:00:44.916Z,51.80
2018-11-21T02:03:16.273Z,54.57
2018-11-21T02:05:47.415Z,54.93
2018-11-21T02:08:18.674Z,62.03
2018-11-21T02:10:50.006Z,56.33
2018-11-21T02:13:21.361Z,46.33
2018-11-21T02:15:52.639Z,41.90
2018-11-21T02:18:23.820Z,60.30
2018-11-21T02:20:55.156Z,46.47
2018-11-21T02:23:26.402Z,50.67
2018-11-21T02:25:57.777Z,70.10
2018-11-21T02:28:29.585Z,70.73
2018-11-21T02:31:00.793Z,61.07
2018-11-21T02:33:32.055Z,58.70
2018-11-21T02:36:03.306Z,55.13
2018-11-21T02:38:34.599Z,62.33
2018-11-21T02:41:05.811Z,72.53
2018-11-21T02:43:37.165Z,59.47
2018-11-21T02:46:08.464Z,54.70
2018-11-21T02:48:39.713Z,64.90
2018-11-21T02:51:10.876Z,66.27
2018-11-21T02:53:42.147Z,68.80
2018-11-21T02:56:13.316Z,80.77
2018-11-21T02:58:44.582Z,75.50
2018-11-21T03:01:15.824Z,79.53
2018-11-21T03:03:47.156Z,72.30
2018-11-21T03:06:18.451Z,91.77
2018-11-21T03:08:49.709Z,62.37
2018-11-21T03:11:21.105Z,60.27
2018-11-21T03:13:52.321Z,60.40
2018-11-21T03:16:23.675Z,87.77
2018-11-21T03:18:55.028Z,63.90
2018-11-21T03:21:26.402Z,76.73
2018-11-21T03:23:57.723Z,56.70
2018-11-21T03:26:29.493Z,79.33
2018-11-21T03:29:00.772Z,81.50
2018-11-21T03:31:32.044Z,68.17
2018-11-21T03:34:03.357Z,72.60
2018-11-21T03:36:34.694Z,102.97
2018-11-21T03:39:08.158Z,80.00
2018-11-21T03:41:39.833Z,84.53
2018-11-21T03:44:19.756Z,98.33
2018-11-21T03:46:51.153Z,95.47
2018-11-21T03:49:22.486Z,97.73
2018-11-21T03:51:53.833Z,85.30
2018-11-21T03:54:25.184Z,92.47
2018-11-21T03:56:56.469Z,71.43
2018-11-21T03:59:27.766Z,62.53
2018-11-21T04:01:59.200Z,74.10
2018-11-21T04:04:30.456Z,66.60
2018-11-21T04:07:01.753Z,79.03
2018-11-21T04:09:33.086Z,70.60
2018-11-21T04:12:04.350Z,87.97
2018-11-21T04:14:35.749Z,67.53
2018-11-21T04:17:07.064Z,71.70
2018-11-21T04:19:38.389Z,56.70
2018-11-21T04:22:09.601Z,61.43
2018-11-21T04:24:40.913Z,71.33
2018-11-21T04:27:12.177Z,55.97
2018-11-21T04:29:43.456Z,71.63
2018-11-21T04:32:14.741Z,65.83
2018-11-21T04:34:46.024Z,71.93
2018-11-21T04:37:17.247Z,61.93
2018-11-21T04:39:48.580Z,81.50
2018-11-21T04:42:19.738Z,68.73
2018-11-21T04:44:51.019Z,57.37
2018-11-21T04:47:22.234Z,57.93
2018-11-21T04:49:53.499Z,52.07
2018-11-21T04:52:24.656Z,57.40
2018-11-21T04:54:56.023Z,54.53
2018-11-21T04:57:27.221Z,60.13
2018-11-21T04:59:58.531Z,66.30
2018-11-21T05:02:29.763Z,70.23
2018-11-21T05:05:01.005Z,70.07
2018-11-21T05:07:32.327Z,68.83
2018-11-21T05:10:03.552Z,90.87
2018-11-21T05:12:34.899Z,78.50
2018-11-21T05:15:06.374Z,87.53
2018-11-21T05:17:37.743Z,88.83
2018-11-21T05:20:08.965Z,81.43
2018-11-21T05:22:40.733Z,76.03
2018-11-21T05:25:12.386Z,86.57
2018-11-21T05:27:43.657Z,66.60
2018-11-21T05:30:14.978Z,71.87
2018-11-21T05:32:46.308Z,75.40
2018-11-21T05:35:17.537Z,66.70
2018-11-21T05:37:48.854Z,70.70
2018-11-21T05:40:20.172Z,83.90
2018-11-21T05:42:51.537Z,85.70
2018-11-21T05:45:22.914Z,100.33
2018-11-21T05:47:54.178Z,80.40
2018-11-21T05:50:25.433Z,119.87
2018-11-21T05:52:56.766Z,108.90
2018-11-21T05:55:27.981Z,60.93
2018-11-21T05:57:59.269Z,85.03
2018-11-21T06:00:30.565Z,104.47
2018-11-21T06:03:01.972Z,110.53
2018-11-21T06:05:33.169Z,78.87
2018-11-21T06:08:04.451Z,67.03
2018-11-21T06:10:35.717Z,27.87
2018-11-21T06:13:07.001Z,63.67
2018-11-21T06:15:38.329Z,22.60
2018-11-21T06:18:09.553Z,36.10
2018-11-21T06:20:40.822Z,51.37
2018-11-21T06:23:12.091Z,52.40
2018-11-21T06:25:43.399Z,78.57
2018-11-21T06:28:14.546Z,24.43
2018-11-21T06:30:46.322Z,24.83
2018-11-21T06:33:17.576Z,21.27
2018-11-21T06:35:48.866Z,22.73
2018-11-21T06:38:20.037Z,17.83
2018-11-21T06:40:51.337Z,24.27
2018-11-21T06:43:22.589Z,72.37
2018-11-21T06:45:53.948Z,62.63
2018-11-21T06:48:25.185Z,17.83
2018-11-21T06:50:56.387Z,68.03
2018-11-21T06:53:27.769Z,76.73
2018-11-21T06:55:59.040Z,53.03
2018-11-21T06:58:30.298Z,17.80
2018-11-21T07:01:01.595Z,17.70
2018-11-21T07:03:32.865Z,23.93
2018-11-21T07:06:04.039Z,14.23
2018-11-21T07:08:35.296Z,15.27
2018-11-21T07:11:06.629Z,15.30
2018-11-21T07:13:37.929Z,14.37
2018-11-21T07:16:09.232Z,14.00
2018-11-21T07:18:40.936Z,15.87
2018-11-21T07:21:12.354Z,13.40
2018-11-21T07:23:43.709Z,13.37
2018-11-21T07:26:15.027Z,15.97
2018-11-21T07:28:46.247Z,15.43
2018-11-21T07:31:17.550Z,17.53
2018-11-21T07:33:48.792Z,56.00
2018-11-21T07:36:20.099Z,45.17
2018-11-21T07:38:51.712Z,59.27
2018-11-21T07:41:22.978Z,109.57
2018-11-21T07:43:54.268Z,90.30
2018-11-21T07:46:25.599Z,90.17
2018-11-21T07:48:56.899Z,116.83
2018-11-21T07:51:28.113Z,104.10
2018-11-21T07:53:59.403Z,84.83
2018-11-21T07:57:08.169Z,95.87
2018-11-21T07:59:39.515Z,89.27
2018-11-21T08:02:14.543Z,72.13
2018-11-21T08:05:04.343Z,100.77
2018-11-21T08:07:54.154Z,78.20
2018-11-21T08:10:43.957Z,84.03
2018-11-21T08:13:33.731Z,66.90
2018-11-21T08:16:23.589Z,75.53
2018-11-21T08:19:13.379Z,57.70
2018-11-21T08:22:03.172Z,15.97
2018-11-21T08:24:46.402Z,10.97
2018-11-21T08:27:36.230Z,55.67
2018-11-21T08:30:07.770Z,85.63
2018-11-21T08:32:39.103Z,42.70
2018-11-21T08:35:10.322Z,70.93
2018-11-21T08:37:41.720Z,54.20
2018-11-21T08:40:13.045Z,58.27
2018-11-21T08:42:44.607Z,73.60
2018-11-21T08:45:15.897Z,53.90
2018-11-21T08:47:47.253Z,40.67
2018-11-21T08:50:18.565Z,64.70
2018-11-21T08:52:49.949Z,33.30
2018-11-21T08:55:21.172Z,52.70
2018-11-21T08:57:55.001Z,31.00
2018-11-21T09:00:26.397Z,40.23
2018-11-21T09:02:57.797Z,93.23
2018-11-21T09:05:29.066Z,70.43
2018-11-21T09:08:00.274Z,76.87
2018-11-21T09:13:01.840Z,73.63
2018-11-21T09:15:33.089Z,67.20
2018-11-21T09:18:04.430Z,114.27
2018-11-21T09:20:35.681Z,77.30
2018-11-21T09:23:06.991Z,114.73
2018-11-21T09:25:38.138Z,87.13
2018-11-21T09:28:09.442Z,60.77
2018-11-21T09:30:40.744Z,96.43
2018-11-21T09:33:12.081Z,58.53
2018-11-21T09:35:43.450Z,23.13
2018-11-21T09:38:14.821Z,61.00
2018-11-21T09:43:34.718Z,54.10
2018-11-21T09:46:06.160Z,42.37
2018-11-21T09:48:37.427Z,49.07
2018-11-21T09:51:08.848Z,18.23
2018-11-21T09:53:40.137Z,34.67
2018-11-21T09:56:11.381Z,20.07
2018-11-21T09:58:42.695Z,31.87
2018-11-21T10:01:51.516Z,31.33
2018-11-21T10:04:22.818Z,33.10
2018-11-21T10:06:54.116Z,47.23
2018-11-21T10:09:28.342Z,23.47
2018-11-21T10:11:59.648Z,33.53
2018-11-21T10:14:30.971Z,32.07
2018-11-21T10:17:02.197Z,35.63
2018-11-21T10:19:33.530Z,57.30
2018-11-21T10:22:04.776Z,66.73
2018-11-21T10:24:36.063Z,66.13
2018-11-21T10:27:07.491Z,76.37
2018-11-21T10:29:38.734Z,97.40
2018-11-21T10:32:09.969Z,48.60
2018-11-21T10:34:41.222Z,76.10
2018-11-21T10:37:12.482Z,55.93
2018-11-21T10:39:43.819Z,73.47
2018-11-21T10:42:15.055Z,39.67
2018-11-21T10:44:46.341Z,52.67
2018-11-21T10:47:17.677Z,54.70
2018-11-21T10:49:48.844Z,35.43
2018-11-21T10:52:20.176Z,28.13
2018-11-21T10:54:51.413Z,27.23
2018-11-21T10:57:22.772Z,37.10
2018-11-21T10:59:54.095Z,46.40
2018-11-21T11:02:43.820Z,39.23
2018-11-21T11:05:33.635Z,63.63
2018-11-21T11:08:23.407Z,55.73
2018-11-21T11:11:13.173Z,46.17
2018-11-21T11:14:02.956Z,46.33
2018-11-21T11:16:52.769Z,31.47
2018-11-21T11:19:42.647Z,37.63
2018-11-21T11:22:32.464Z,33.27
2018-11-21T11:25:22.211Z,28.63
2018-11-21T11:28:14.643Z,30.03
2018-11-21T11:31:01.926Z,28.23
2018-11-21T11:33:51.789Z,31.03
2018-11-21T11:36:41.486Z,37.10
2018-11-21T11:39:31.236Z,35.43
2018-11-21T11:42:20.957Z,13.27
2018-11-21T11:45:14.399Z,34.83
2018-11-21T11:48:00.582Z,46.43
2018-11-21T11:50:55.252Z,43.30
2018-11-21T11:53:45.030Z,44.40
2018-11-21T11:56:34.777Z,21.83
2018-11-21T11:59:24.754Z,36.03
2018-11-21T12:02:14.525Z,45.93
2018-11-21T12:05:04.337Z,33.00
2018-11-21T12:07:54.183Z,44.40
2018-11-21T12:10:43.895Z,37.60
2018-11-21T12:13:33.704Z,37.07
2018-11-21T12:16:23.521Z,56.63
2018-11-21T12:19:08.714Z,55.07
2018-11-21T12:21:58.539Z,42.33
2018-11-21T12:24:48.266Z,44.07
2018-11-21T12:27:38.104Z,46.23
2018-11-21T12:30:29.512Z,51.73
2018-11-21T12:33:19.373Z,18.43
2018-11-21T12:36:09.427Z,49.97
2018-11-21T12:38:59.226Z,30.93
2018-11-21T12:41:49.074Z,47.37
2018-11-21T12:44:38.895Z,38.50
2018-11-21T12:47:28.667Z,62.10
2018-11-21T12:50:18.467Z,64.07
2018-11-21T12:53:08.289Z,41.33
2018-11-21T12:55:58.137Z,37.37
2018-11-21T12:58:47.947Z,53.40
2018-11-21T13:01:37.789Z,31.23
2018-11-21T13:04:27.568Z,39.73
2018-11-21T13:07:15.733Z,26.90
2018-11-21T13:10:05.422Z,19.33
2018-11-21T13:12:55.268Z,24.60
2018-11-21T13:15:43.437Z,53.93
2018-11-21T13:18:30.338Z,58.37
2018-11-21T13:21:20.100Z,67.93
2018-11-21T13:24:09.878Z,63.80
2018-11-21T13:26:59.818Z,59.13
2018-11-21T13:29:49.578Z,65.07
2018-11-21T13:32:39.359Z,64.27
2018-11-21T13:35:29.179Z,50.07
2018-11-21T13:38:23.282Z,43.37
2018-11-21T13:41:08.739Z,31.27
2018-11-21T13:43:58.538Z,42.07
2018-11-21T13:46:48.388Z,32.83
2018-11-21T13:49:38.131Z,26.27
2018-11-21T13:52:27.916Z,43.93
2018-11-21T13:55:00.808Z,56.30
2018-11-21T13:57:32.721Z,24.87
2018-11-21T14:00:04.247Z,43.20
2018-11-21T14:02:35.667Z,35.00
2018-11-21T14:05:25.707Z,55.73
2018-11-21T14:07:57.737Z,26.30
2018-11-21T14:10:28.998Z,43.47
2018-11-21T14:13:00.445Z,56.90
2018-11-21T14:15:32.839Z,59.97
2018-11-21T14:18:03.082Z,41.13
2018-11-21T14:20:34.313Z,50.97
2018-11-21T14:23:05.696Z,54.07
2018-11-21T14:25:36.979Z,37.10
2018-11-21T14:28:08.309Z,46.57
2018-11-21T14:30:39.482Z,48.60
2018-11-21T14:33:10.813Z,52.83
2018-11-21T14:35:42.031Z,53.20
2018-11-21T14:38:13.343Z,33.13
2018-11-21T14:40:44.585Z,20.57
2018-11-21T14:43:16.172Z,45.57
2018-11-21T14:45:47.410Z,43.30
2018-11-21T14:48:18.814Z,32.90
2018-11-21T14:50:50.159Z,35.17
2018-11-21T14:53:33.027Z,27.90
2018-11-21T14:56:04.338Z,16.77
2018-11-21T14:58:35.615Z,16.40
2018-11-21T15:01:06.975Z,21.67
2018-11-21T15:03:38.346Z,26.17
2018-11-21T15:06:09.823Z,28.80
2018-11-21T15:08:41.272Z,41.10
2018-11-21T15:11:12.559Z,13.70
2018-11-21T15:13:43.747Z,22.80
2018-11-21T15:16:15.190Z,17.70
2018-11-21T15:18:46.438Z,22.27
2018-11-21T15:21:17.739Z,17.97
2018-11-21T15:23:49.008Z,17.10
2018-11-21T15:26:20.768Z,20.97
2018-11-21T15:28:52.097Z,17.97
2018-11-21T15:31:23.466Z,16.27
2018-11-21T15:33:54.716Z,33.10
2018-11-21T15:36:26.030Z,52.53
2018-11-21T15:38:57.200Z,27.33
2018-11-21T15:41:28.481Z,32.57
2018-11-21T15:43:59.671Z,26.77
2018-11-21T15:46:30.950Z,49.30
2018-11-21T15:49:02.220Z,49.67
2018-11-21T15:51:33.869Z,55.17
2018-11-21T15:54:05.250Z,53.33
2018-11-21T15:56:36.867Z,34.73
2018-11-21T15:59:08.464Z,42.37
2018-11-21T16:01:39.788Z,41.90
2018-11-21T16:04:11.043Z,52.77
2018-11-21T16:06:42.365Z,50.03
2018-11-21T16:09:13.801Z,69.30
2018-11-21T16:11:45.174Z,41.73
2018-11-21T16:14:16.392Z,56.23
2018-11-21T16:16:47.661Z,42.83
2018-11-21T16:19:18.972Z,45.00
2018-11-21T16:21:50.381Z,58.20
2018-11-21T16:24:21.630Z,40.60
2018-11-21T16:26:52.929Z,41.93
2018-11-21T16:29:24.159Z,37.93
2018-11-21T16:31:55.933Z,45.23
2018-11-21T16:34:27.261Z,34.90
2018-11-21T16:36:58.669Z,33.40
2018-11-21T16:39:30.051Z,16.40
2018-11-21T16:42:01.421Z,22.63
2018-11-21T16:44:32.777Z,26.20
2018-11-21T16:47:04.045Z,19.93
2018-11-21T16:49:35.523Z,45.53
2018-11-21T16:52:07.576Z,16.17
2018-11-21T16:54:38.884Z,25.87
2018-11-21T16:57:10.166Z,21.20
2018-11-21T16:59:41.532Z,12.73
2018-11-21T17:02:12.834Z,12.53
2018-11-21T17:04:44.083Z,13.00
2018-11-21T17:07:15.374Z,10.50
2018-11-21T17:09:49.148Z,14.03
2018-11-21T17:12:20.635Z,14.53
2018-11-21T17:14:51.896Z,19.07
2018-11-21T17:17:23.168Z,33.70
2018-11-21T17:19:54.338Z,41.63
2018-11-21T17:22:26.178Z,27.97
2018-11-21T17:24:56.761Z,35.90
2018-11-21T17:27:28.120Z,19.37
2018-11-21T17:29:59.305Z,14.47
2018-11-21T17:32:30.594Z,13.67
2018-11-21T17:35:01.844Z,10.27
2018-11-21T17:37:33.229Z,15.27
2018-11-21T17:40:04.486Z,8.83
2018-11-21T17:42:35.667Z,8.47
2018-11-21T17:45:07.686Z,12.90
2018-11-21T17:47:38.933Z,17.27
2018-11-21T17:50:13.236Z,10.23
2018-11-21T17:52:44.784Z,9.63
2018-11-21T17:55:17.592Z,20.30
2018-11-21T17:57:48.911Z,26.33
2018-11-21T18:00:38.864Z,10.33
2018-11-21T18:03:10.203Z,8.10
2018-11-21T18:05:42.308Z,13.90
2018-11-21T18:08:13.551Z,16.83
2018-11-21T18:10:44.788Z,11.37
2018-11-21T18:13:16.157Z,15.80
2018-11-21T18:15:47.425Z,10.73
2018-11-21T18:18:18.740Z,13.00
2018-11-21T18:20:50.083Z,14.10
2018-11-21T18:23:21.261Z,23.43
2018-11-21T18:25:52.551Z,25.90
2018-11-21T18:28:23.829Z,20.93
2018-11-21T18:30:55.139Z,25.10
2018-11-21T18:33:26.461Z,33.87
2018-11-21T18:35:57.733Z,26.90
2018-11-21T18:38:29.106Z,40.90
2018-11-21T18:41:00.346Z,30.53
2018-11-21T18:43:31.698Z,33.33
2018-11-21T18:46:02.965Z,15.37
2018-11-21T18:48:34.320Z,22.27
2018-11-21T18:51:05.502Z,34.13
2018-11-21T18:53:36.869Z,27.60
2018-11-21T18:56:45.646Z,33.23
2018-11-21T18:59:54.446Z,38.00
2018-11-21T19:02:25.826Z,38.80
2018-11-21T19:04:57.224Z,41.30
2018-11-21T19:07:28.544Z,43.20
2018-11-21T19:09:59.790Z,37.20
2018-11-21T19:12:31.153Z,28.90
2018-11-21T19:15:02.464Z,18.53
2018-11-21T19:17:33.929Z,23.80
2018-11-21T19:20:05.572Z,18.20
2018-11-21T19:22:37.016Z,20.13
2018-11-21T19:25:09.396Z,10.60
2018-11-21T19:27:41.263Z,12.80
2018-11-21T19:30:14.729Z,17.60
2018-11-21T19:32:46.070Z,17.30
2018-11-21T19:35:17.502Z,15.17
2018-11-21T19:37:48.828Z,10.73
2018-11-21T19:40:20.281Z,5.13
2018-11-21T19:42:51.460Z,6.17
2018-11-21T19:45:22.825Z,4.87
2018-11-21T19:47:54.214Z,5.20
2018-11-21T19:50:25.598Z,4.33
2018-11-21T19:52:57.113Z,5.87
2018-11-21T19:55:29.948Z,4.70
2018-11-21T19:58:01.274Z,7.37
2018-11-21T20:00:33.836Z,3.80
2018-11-21T20:03:05.112Z,5.50
2018-11-21T20:05:36.625Z,5.87
2018-11-21T20:08:07.923Z,3.50
2018-11-21T20:10:39.147Z,3.40
2018-11-21T20:13:10.447Z,3.37
2018-11-21T20:15:41.740Z,3.00
2018-11-21T20:18:12.996Z,3.33
2018-11-21T20:20:44.297Z,3.03
2018-11-21T20:23:15.510Z,2.47
2018-11-21T20:25:46.824Z,2.57
2018-11-21T20:28:18.034Z,2.47
2018-11-21T20:30:49.310Z,2.40
2018-11-21T20:33:20.523Z,2.87
2018-11-21T20:35:51.898Z,3.03
2018-11-21T20:38:23.103Z,3.33
2018-11-21T20:40:54.495Z,4.23
2018-11-21T20:46:09.705Z,2.93
2018-11-21T20:48:41.152Z,2.40
2018-11-21T20:51:29.899Z,2.23
2018-11-21T20:54:01.143Z,2.67
2018-11-21T20:56:32.453Z,2.70
2018-11-21T20:59:03.842Z,2.83
2018-11-21T21:01:35.306Z,3.73
2018-11-21T21:04:06.729Z,2.97
2018-11-21T21:06:38.015Z,3.30
2018-11-21T21:09:14.960Z,2.53
2018-11-21T21:11:46.176Z,3.50
2018-11-21T21:14:17.523Z,3.10
2018-11-21T21:16:48.842Z,3.10
2018-11-21T21:19:20.225Z,4.10
2018-11-21T21:21:51.483Z,3.17
2018-11-21T21:24:22.728Z,2.80
2018-11-21T21:26:54.072Z,2.77
2018-11-21T21:29:25.361Z,2.70
2018-11-21T21:31:56.713Z,3.00
2018-11-21T21:34:27.941Z,3.10
2018-11-21T21:36:59.230Z,3.20
2018-11-21T21:39:30.556Z,2.83
2018-11-21T21:42:01.911Z,3.43
2018-11-21T21:44:33.146Z,4.30
2018-11-21T21:47:04.460Z,3.27
2018-11-21T21:49:35.775Z,3.23
2018-11-21T21:52:07.021Z,3.03
2018-11-21T21:54:38.311Z,3.07
2018-11-21T21:57:09.559Z,2.90
2018-11-21T21:59:40.849Z,3.23
2018-11-21T22:02:12.205Z,3.10
2018-11-21T22:04:43.481Z,2.97
2018-11-21T22:07:14.795Z,2.80
2018-11-21T22:12:17.333Z,2.70
2018-11-21T22:14:48.567Z,3.40
2018-11-21T22:17:19.836Z,2.83
2018-11-21T22:19:51.035Z,3.03
2018-11-21T22:22:22.317Z,2.77
2018-11-21T22:24:53.568Z,3.03
2018-11-21T22:27:24.907Z,3.07
2018-11-21T22:29:56.208Z,2.87
2018-11-21T22:32:27.568Z,2.70
2018-11-21T22:34:58.744Z,2.73
2018-11-21T22:37:30.863Z,3.23
2018-11-21T22:40:01.249Z,3.07
2018-11-21T22:42:32.568Z,3.00
2018-11-21T22:45:03.729Z,3.17
2018-11-21T22:47:35.079Z,3.60
2018-11-21T22:50:06.518Z,3.20
2018-11-21T22:52:37.867Z,3.30
2018-11-21T22:55:10.418Z,3.00
2018-11-21T22:57:42.237Z,3.30
2018-11-21T23:00:15.677Z,3.43
2018-11-21T23:02:46.926Z,3.77
2018-11-21T23:05:18.595Z,3.70
2018-11-21T23:07:49.918Z,3.63
2018-11-21T23:10:27.750Z,3.80
2018-11-21T23:12:59.128Z,3.57
2018-11-21T23:15:30.473Z,3.87
2018-11-21T23:18:01.748Z,3.97
2018-11-21T23:20:33.067Z,4.20
2018-11-21T23:23:04.498Z,4.00
2018-11-21T23:25:35.920Z,3.80
2018-11-21T23:28:09.207Z,4.00
2018-11-21T23:30:40.535Z,3.63
2018-11-21T23:33:11.762Z,4.00
2018-11-21T23:35:43.119Z,3.97
2018-11-21T23:38:14.403Z,4.13
2018-11-21T23:40:45.736Z,4.23
2018-11-21T23:43:17.025Z,4.30
2018-11-21T23:45:48.395Z,4.50
2018-11-21T23:48:19.615Z,4.97
2018-11-21T23:50:50.918Z,4.40
2018-11-21T23:53:22.146Z,4.10
2018-11-21T23:55:53.401Z,4.87
2018-11-21T23:58:24.716Z,4.97
